createdAt,value
2018-01-17T00:01:10.240Z,33.00
2018-01-17T00:03:37.895Z,32.98
2018-01-17T00:06:05.387Z,32.92
2018-01-17T00:08:32.782Z,32.94
2018-01-17T00:11:00.211Z,32.98
2018-01-17T00:13:27.613Z,32.94
2018-01-17T00:15:55.138Z,33.07
2018-01-17T00:18:22.688Z,33.12
2018-01-17T00:20:50.091Z,33.04
2018-01-17T00:23:17.547Z,32.96
2018-01-17T00:25:44.978Z,32.90
2018-01-17T00:28:12.334Z,32.96
2018-01-17T00:30:39.830Z,33.02
2018-01-17T00:33:07.422Z,32.93
2018-01-17T00:35:34.891Z,32.94
2018-01-17T00:38:02.355Z,33.05
2018-01-17T00:40:29.827Z,32.89
2018-01-17T00:42:57.251Z,32.90
2018-01-17T00:45:24.801Z,33.00
2018-01-17T00:47:52.226Z,32.92
2018-01-17T00:50:19.608Z,32.88
2018-01-17T00:52:46.979Z,32.81
2018-01-17T00:55:15.118Z,33.02
2018-01-17T00:57:42.537Z,32.94
2018-01-17T01:00:09.986Z,32.95
2018-01-17T01:02:37.524Z,33.05
2018-01-17T01:05:05.270Z,33.01
2018-01-17T01:07:32.735Z,32.90
2018-01-17T01:10:00.139Z,32.80
2018-01-17T01:12:27.535Z,32.82
2018-01-17T01:14:54.980Z,32.83
2018-01-17T01:17:22.361Z,32.89
2018-01-17T01:19:49.878Z,33.03
2018-01-17T01:22:18.175Z,33.03
2018-01-17T01:24:45.735Z,32.87
2018-01-17T01:27:13.291Z,32.83
2018-01-17T01:29:40.773Z,32.91
2018-01-17T01:32:08.140Z,32.85
2018-01-17T01:34:35.539Z,32.86
2018-01-17T01:37:02.991Z,32.85
2018-01-17T01:39:30.367Z,32.86
2018-01-17T01:41:57.728Z,32.96
2018-01-17T01:44:25.179Z,32.89
2018-01-17T01:46:52.571Z,33.02
2018-01-17T01:49:20.015Z,32.87
2018-01-17T01:51:47.922Z,32.81
2018-01-17T01:54:15.318Z,32.70
2018-01-17T01:56:42.747Z,32.71
2018-01-17T01:59:10.191Z,32.71
2018-01-17T02:01:37.568Z,32.84
2018-01-17T02:04:05.018Z,32.22
2018-01-17T02:06:32.385Z,32.88
2018-01-17T02:08:59.750Z,33.28
2018-01-17T02:11:27.150Z,33.89
2018-01-17T02:13:54.576Z,34.26
2018-01-17T02:16:21.981Z,34.51
2018-01-17T02:18:49.345Z,34.86
2018-01-17T02:21:16.746Z,35.27
2018-01-17T02:23:44.654Z,35.55
2018-01-17T02:26:12.478Z,36.00
2018-01-17T02:28:39.842Z,36.32
2018-01-17T02:31:07.263Z,36.49
2018-01-17T02:33:34.635Z,36.88
2018-01-17T02:36:02.112Z,36.90
2018-01-17T02:38:29.642Z,37.23
2018-01-17T02:40:57.349Z,37.42
2018-01-17T02:43:24.839Z,37.72
2018-01-17T02:45:52.225Z,37.96
2018-01-17T02:48:19.581Z,37.93
2018-01-17T02:50:47.035Z,38.27
2018-01-17T02:53:14.637Z,38.46
2018-01-17T02:55:42.116Z,38.70
2018-01-17T02:58:09.979Z,38.98
2018-01-17T03:00:37.327Z,39.27
2018-01-17T03:03:04.725Z,39.47
2018-01-17T03:05:32.130Z,39.66
2018-01-17T03:07:59.956Z,39.75
2018-01-17T03:10:27.869Z,40.07
2018-01-17T03:12:55.301Z,40.16
2018-01-17T03:15:22.739Z,40.38
2018-01-17T03:17:50.204Z,40.81
2018-01-17T03:20:17.658Z,41.02
2018-01-17T03:22:45.317Z,41.06
2018-01-17T03:25:13.285Z,41.25
2018-01-17T03:27:42.218Z,41.56
2018-01-17T03:30:09.988Z,41.65
2018-01-17T03:32:37.379Z,41.49
2018-01-17T03:35:04.775Z,41.67
2018-01-17T03:37:32.147Z,42.25
2018-01-17T03:39:59.581Z,42.26
2018-01-17T03:42:26.955Z,42.39
2018-01-17T03:44:54.337Z,42.53
2018-01-17T03:47:21.774Z,42.59
2018-01-17T03:49:49.186Z,42.42
2018-01-17T03:52:16.628Z,42.67
2018-01-17T03:54:44.148Z,42.83
2018-01-17T03:57:12.490Z,42.74
2018-01-17T03:59:39.864Z,42.80
2018-01-17T04:02:07.306Z,42.94
2018-01-17T04:04:34.674Z,42.98
2018-01-17T04:07:02.188Z,43.00
2018-01-17T04:09:29.604Z,43.01
2018-01-17T04:11:57.174Z,43.19
2018-01-17T04:14:24.765Z,42.84
2018-01-17T04:16:52.260Z,42.96
2018-01-17T04:19:19.862Z,43.08
2018-01-17T04:21:47.344Z,42.72
2018-01-17T04:24:14.731Z,43.09
2018-01-17T04:26:42.178Z,43.36
2018-01-17T04:29:09.545Z,43.13
2018-01-17T04:31:37.031Z,42.91
2018-01-17T04:34:04.458Z,42.99
2018-01-17T04:36:31.894Z,42.91
2018-01-17T04:38:59.283Z,42.59
2018-01-17T04:41:26.749Z,42.47
2018-01-17T04:43:54.143Z,42.36
2018-01-17T04:46:21.642Z,42.24
2018-01-17T04:48:49.029Z,42.22
2018-01-17T04:51:16.914Z,42.11
2018-01-17T04:53:44.409Z,42.13
2018-01-17T04:56:11.918Z,42.07
2018-01-17T04:58:39.437Z,42.12
2018-01-17T05:01:06.868Z,42.46
2018-01-17T05:03:34.287Z,42.38
2018-01-17T05:06:01.942Z,42.24
2018-01-17T05:08:29.576Z,42.35
2018-01-17T05:10:57.088Z,42.41
2018-01-17T05:13:24.563Z,42.58
2018-01-17T05:15:51.976Z,42.61
2018-01-17T05:18:19.441Z,42.60
2018-01-17T05:20:46.837Z,42.76
2018-01-17T05:23:15.833Z,42.74
2018-01-17T05:25:43.413Z,42.83
2018-01-17T05:28:10.821Z,42.96
2018-01-17T05:30:38.411Z,42.99
2018-01-17T05:33:05.852Z,43.00
2018-01-17T05:35:33.429Z,43.08
2018-01-17T05:38:00.849Z,43.06
2018-01-17T05:40:28.403Z,42.88
2018-01-17T05:42:55.821Z,42.98
2018-01-17T05:45:23.229Z,42.82
2018-01-17T05:47:50.680Z,42.75
2018-01-17T05:50:18.433Z,42.60
2018-01-17T05:52:45.933Z,42.63
2018-01-17T05:55:13.366Z,42.72
2018-01-17T05:57:41.058Z,42.80
2018-01-17T06:00:08.534Z,42.89
2018-01-17T06:02:36.062Z,42.93
2018-01-17T06:05:03.613Z,42.89
2018-01-17T06:07:31.025Z,43.08
2018-01-17T06:09:58.481Z,43.07
2018-01-17T06:12:26.028Z,43.08
2018-01-17T06:14:53.439Z,43.01
2018-01-17T06:17:20.876Z,43.00
2018-01-17T06:19:48.331Z,42.94
2018-01-17T06:22:15.789Z,43.87
2018-01-17T06:24:43.356Z,42.65
2018-01-17T06:27:11.150Z,42.17
2018-01-17T06:29:38.583Z,42.22
2018-01-17T06:32:06.667Z,42.26
2018-01-17T06:34:34.246Z,42.38
2018-01-17T06:37:01.799Z,42.25
2018-01-17T06:39:29.343Z,42.05
2018-01-17T06:41:56.840Z,41.83
2018-01-17T06:44:24.218Z,42.11
2018-01-17T06:46:51.705Z,41.91
2018-01-17T06:49:19.115Z,41.83
2018-01-17T06:51:46.675Z,42.00
2018-01-17T06:54:14.380Z,41.88
2018-01-17T06:56:42.053Z,41.85
2018-01-17T06:59:09.646Z,41.89
2018-01-17T07:01:39.406Z,41.81
2018-01-17T07:04:07.043Z,41.66
2018-01-17T07:06:34.493Z,41.68
2018-01-17T07:09:02.827Z,41.38
2018-01-17T07:11:30.363Z,41.53
2018-01-17T07:13:57.874Z,41.49
2018-01-17T07:16:25.862Z,41.45
2018-01-17T07:18:53.348Z,41.77
2018-01-17T07:21:21.072Z,41.33
2018-01-17T07:23:48.610Z,41.42
2018-01-17T07:26:16.093Z,41.21
2018-01-17T07:28:43.854Z,41.39
2018-01-17T07:31:11.410Z,41.55
2018-01-17T07:33:39.044Z,41.32
2018-01-17T07:36:08.543Z,41.34
2018-01-17T07:38:39.414Z,41.12
2018-01-17T07:41:06.994Z,41.10
2018-01-17T07:43:35.529Z,41.31
2018-01-17T07:46:03.522Z,41.17
2018-01-17T07:48:34.214Z,41.27
2018-01-17T07:51:01.892Z,41.28
2018-01-17T07:53:34.395Z,41.59
2018-01-17T07:56:02.040Z,41.42
2018-01-17T07:58:30.174Z,40.98
2018-01-17T08:00:58.374Z,41.08
2018-01-17T08:03:26.467Z,41.18
2018-01-17T08:05:54.220Z,41.02
2018-01-17T08:08:25.747Z,41.02
2018-01-17T08:10:55.022Z,41.36
2018-01-17T08:13:23.179Z,41.28
2018-01-17T08:15:50.931Z,41.36
2018-01-17T08:18:18.754Z,41.73
2018-01-17T08:20:46.346Z,41.24
2018-01-17T08:23:14.072Z,41.42
2018-01-17T08:25:41.672Z,41.24
2018-01-17T08:28:10.586Z,41.66
2018-01-17T08:30:38.152Z,41.61
2018-01-17T08:33:06.723Z,41.54
2018-01-17T08:35:36.512Z,41.77
2018-01-17T08:38:04.379Z,41.80
2018-01-17T08:40:33.381Z,41.56
2018-01-17T08:43:00.995Z,41.82
2018-01-17T08:45:28.480Z,41.68
2018-01-17T08:47:55.964Z,41.97
2018-01-17T08:50:26.306Z,41.97
2018-01-17T08:52:54.144Z,42.00
2018-01-17T08:55:23.105Z,42.10
2018-01-17T08:57:50.939Z,42.00
2018-01-17T09:00:19.654Z,42.34
2018-01-17T09:02:48.559Z,42.18
2018-01-17T09:05:19.881Z,42.07
2018-01-17T09:07:47.852Z,42.22
2018-01-17T09:10:19.271Z,42.36
2018-01-17T09:12:49.099Z,42.47
2018-01-17T09:15:18.742Z,42.50
2018-01-17T09:17:47.652Z,42.55
2018-01-17T09:20:16.360Z,42.56
2018-01-17T09:22:44.354Z,42.59
2018-01-17T09:25:12.288Z,42.89
2018-01-17T09:27:39.962Z,42.72
2018-01-17T09:30:07.934Z,42.80
2018-01-17T09:32:35.910Z,42.88
2018-01-17T09:35:04.997Z,42.99
2018-01-17T09:37:37.972Z,42.79
2018-01-17T09:40:05.872Z,42.85
2018-01-17T09:42:39.653Z,42.96
2018-01-17T09:45:08.871Z,43.16
2018-01-17T09:47:38.536Z,43.07
2018-01-17T09:50:08.815Z,43.41
2018-01-17T09:52:36.469Z,42.68
2018-01-17T09:55:04.183Z,43.38
2018-01-17T09:57:31.705Z,43.27
2018-01-17T09:59:59.395Z,43.12
2018-01-17T10:02:26.975Z,43.13
2018-01-17T10:05:00.115Z,42.75
2018-01-17T10:07:30.585Z,42.96
2018-01-17T10:10:01.440Z,42.78
2018-01-17T10:12:29.186Z,42.66
2018-01-17T10:14:56.871Z,42.96
2018-01-17T10:17:28.011Z,42.08
2018-01-17T10:19:55.878Z,42.99
2018-01-17T10:22:23.673Z,42.17
2018-01-17T10:24:52.352Z,42.10
2018-01-17T10:27:20.118Z,42.10
2018-01-17T10:29:47.795Z,42.13
2018-01-17T10:35:11.593Z,42.45
2018-01-17T10:40:32.264Z,42.18
2018-01-17T10:43:00.988Z,42.04
2018-01-17T10:48:21.444Z,42.48
2018-01-17T10:50:49.136Z,42.55
2018-01-17T10:53:16.815Z,42.44
2018-01-17T10:55:44.328Z,42.28
2018-01-17T10:58:11.991Z,42.24
2018-01-17T11:00:39.814Z,42.42
2018-01-17T11:03:08.221Z,42.42
2018-01-17T11:05:35.865Z,42.48
2018-01-17T11:08:12.134Z,42.30
2018-01-17T11:10:41.046Z,42.36
2018-01-17T11:13:09.723Z,42.26
2018-01-17T11:15:38.123Z,42.38
2018-01-17T11:18:07.073Z,42.48
2018-01-17T11:20:36.047Z,42.44
2018-01-17T11:23:03.587Z,42.31
2018-01-17T11:25:34.889Z,42.39
2018-01-17T11:28:03.107Z,42.08
2018-01-17T11:33:26.915Z,42.23
2018-01-17T11:35:55.577Z,42.19
2018-01-17T11:38:23.189Z,42.35
2018-01-17T11:40:53.615Z,42.57
2018-01-17T11:43:24.291Z,42.17
2018-01-17T11:45:53.482Z,42.16
2018-01-17T11:48:24.735Z,42.15
2018-01-17T11:50:55.412Z,41.97
2018-01-17T11:53:23.123Z,42.50
2018-01-17T11:55:53.349Z,42.04
2018-01-17T11:58:21.357Z,41.94
2018-01-17T12:00:50.190Z,42.13
2018-01-17T12:03:26.718Z,42.28
2018-01-17T12:05:57.883Z,42.05
2018-01-17T12:08:26.554Z,42.29
2018-01-17T12:10:56.467Z,42.31
2018-01-17T12:13:26.076Z,42.13
2018-01-17T12:15:53.906Z,42.21
2018-01-17T12:18:23.524Z,42.08
2018-01-17T12:20:52.690Z,42.40
2018-01-17T12:23:24.008Z,42.10
2018-01-17T12:25:51.764Z,42.17
2018-01-17T12:28:21.701Z,42.36
2018-01-17T12:33:32.165Z,42.15
2018-01-17T12:36:02.935Z,42.39
2018-01-17T12:38:31.775Z,42.42
2018-01-17T12:40:59.894Z,42.46
2018-01-17T12:43:27.561Z,42.27
2018-01-17T12:45:55.183Z,42.36
2018-01-17T12:48:23.992Z,42.54
2018-01-17T12:50:51.565Z,42.60
2018-01-17T12:53:19.965Z,42.76
2018-01-17T12:55:49.889Z,42.73
2018-01-17T12:58:19.798Z,42.91
2018-01-17T13:00:49.533Z,43.07
2018-01-17T13:03:17.866Z,42.91
2018-01-17T13:05:46.793Z,43.33
2018-01-17T13:08:16.855Z,43.04
2018-01-17T13:10:44.922Z,43.08
2018-01-17T13:13:15.845Z,43.28
2018-01-17T13:15:44.128Z,43.00
2018-01-17T13:18:14.352Z,43.56
2018-01-17T13:20:42.169Z,43.56
2018-01-17T13:23:09.970Z,43.44
2018-01-17T13:25:38.834Z,43.67
2018-01-17T13:28:09.200Z,43.61
2018-01-17T13:30:37.330Z,43.06
2018-01-17T13:33:05.048Z,43.07
2018-01-17T13:35:33.728Z,43.00
2018-01-17T13:38:06.197Z,42.29
2018-01-17T13:40:33.972Z,43.82
2018-01-17T13:43:04.999Z,43.22
2018-01-17T13:45:36.885Z,43.20
2018-01-17T13:48:04.935Z,43.14
2018-01-17T13:50:35.655Z,43.26
2018-01-17T13:53:09.177Z,43.38
2018-01-17T13:55:37.107Z,43.31
2018-01-17T13:58:05.566Z,43.62
2018-01-17T14:00:33.454Z,44.08
2018-01-17T14:03:06.182Z,43.44
2018-01-17T14:05:35.683Z,43.62
2018-01-17T14:08:03.587Z,43.55
2018-01-17T14:10:39.437Z,43.60
2018-01-17T14:13:07.090Z,43.49
2018-01-17T14:15:37.846Z,43.30
2018-01-17T14:18:09.453Z,43.26
2018-01-17T14:20:38.299Z,43.43
2018-01-17T14:23:13.365Z,43.21
2018-01-17T14:25:43.961Z,43.58
2018-01-17T14:28:15.867Z,43.43
2018-01-17T14:30:44.041Z,43.38
2018-01-17T14:33:13.391Z,43.37
2018-01-17T14:35:49.614Z,43.08
2018-01-17T14:38:17.627Z,43.16
2018-01-17T14:43:19.006Z,43.12
2018-01-17T14:45:47.258Z,43.16
2018-01-17T14:48:14.775Z,43.40
2018-01-17T14:50:42.412Z,43.26
2018-01-17T14:53:09.863Z,43.10
2018-01-17T14:55:37.301Z,43.21
2018-01-17T14:58:04.965Z,42.70
2018-01-17T15:00:32.489Z,43.05
2018-01-17T15:03:00.285Z,42.67
2018-01-17T15:05:28.544Z,42.77
2018-01-17T15:07:56.559Z,42.89
2018-01-17T15:10:24.295Z,42.85
2018-01-17T15:12:51.859Z,42.38
2018-01-17T15:15:20.005Z,42.61
2018-01-17T15:17:47.608Z,42.65
2018-01-17T15:20:15.201Z,42.28
2018-01-17T15:22:44.459Z,42.52
2018-01-17T15:25:12.026Z,42.32
2018-01-17T15:27:39.676Z,42.36
2018-01-17T15:30:07.254Z,42.20
2018-01-17T15:32:34.922Z,42.42
2018-01-17T15:35:02.335Z,42.24
2018-01-17T15:37:29.699Z,42.46
2018-01-17T15:39:57.301Z,42.47
2018-01-17T15:42:24.717Z,42.36
2018-01-17T15:44:52.298Z,42.30
2018-01-17T15:47:19.723Z,42.25
2018-01-17T15:49:47.266Z,42.29
2018-01-17T15:52:14.966Z,42.24
2018-01-17T15:54:42.658Z,42.01
2018-01-17T15:57:10.506Z,41.95
2018-01-17T15:59:37.969Z,41.99
2018-01-17T16:02:05.513Z,41.99
2018-01-17T16:04:32.952Z,41.76
2018-01-17T16:07:00.390Z,41.95
2018-01-17T16:09:28.192Z,41.90
2018-01-17T16:11:55.653Z,41.93
2018-01-17T16:14:23.322Z,41.67
2018-01-17T16:16:50.981Z,41.85
2018-01-17T16:19:18.756Z,41.70
2018-01-17T16:21:47.457Z,41.84
2018-01-17T16:24:14.866Z,41.94
2018-01-17T16:26:42.495Z,41.95
2018-01-17T16:29:10.227Z,41.75
2018-01-17T16:31:37.688Z,41.69
2018-01-17T16:34:05.087Z,41.66
2018-01-17T16:36:32.667Z,41.80
2018-01-17T16:55:55.132Z,41.95
2018-01-17T16:58:22.789Z,42.03
2018-01-17T17:00:50.360Z,41.84
2018-01-17T17:03:17.885Z,42.04
2018-01-17T17:05:46.744Z,41.93
2018-01-17T17:08:14.172Z,41.88
2018-01-17T17:10:41.613Z,41.88
2018-01-17T17:13:08.999Z,41.94
2018-01-17T17:15:36.415Z,41.93
2018-01-17T17:18:03.867Z,41.85
2018-01-17T17:20:32.397Z,41.88
2018-01-17T17:22:59.986Z,41.99
2018-01-17T17:25:27.374Z,42.00
2018-01-17T17:27:54.835Z,41.94
2018-01-17T17:30:29.595Z,41.82
2018-01-17T17:32:57.106Z,41.83
2018-01-17T17:35:24.473Z,41.81
2018-01-17T17:37:52.135Z,41.89
2018-01-17T17:40:19.599Z,41.98
2018-01-17T17:42:47.031Z,41.96
2018-01-17T17:45:14.470Z,42.12
2018-01-17T17:47:41.890Z,42.28
2018-01-17T17:50:09.252Z,42.07
2018-01-17T17:52:36.642Z,42.13
2018-01-17T17:55:04.048Z,42.04
2018-01-17T17:57:31.428Z,42.05
2018-01-17T18:00:06.540Z,42.01
2018-01-17T18:02:33.954Z,42.00
2018-01-17T18:05:01.442Z,42.27
2018-01-17T18:07:28.802Z,42.13
2018-01-17T18:09:56.152Z,42.00
2018-01-17T18:12:23.592Z,41.84
2018-01-17T18:20:06.466Z,40.89
2018-01-17T18:22:33.874Z,40.69
2018-01-17T18:25:01.255Z,40.49
2018-01-17T18:27:28.658Z,40.42
2018-01-17T18:30:03.811Z,40.22
2018-01-17T18:32:31.166Z,39.89
2018-01-17T18:34:58.575Z,39.67
2018-01-17T18:37:26.063Z,39.59
2018-01-17T18:39:53.459Z,39.49
2018-01-17T18:42:20.952Z,39.36
2018-01-17T18:44:48.354Z,39.23
2018-01-17T18:47:15.702Z,39.17
2018-01-17T18:49:43.153Z,38.94
2018-01-17T18:52:10.582Z,38.65
2018-01-17T18:54:37.999Z,38.52
2018-01-17T18:57:05.358Z,38.10
2018-01-17T18:59:32.795Z,38.20
2018-01-17T19:02:00.222Z,38.07
2018-01-17T19:04:27.771Z,37.75
2018-01-17T19:06:55.226Z,37.77
2018-01-17T19:09:22.606Z,37.26
2018-01-17T19:11:50.008Z,37.47
2018-01-17T19:14:17.409Z,37.35
2018-01-17T19:16:44.897Z,37.39
2018-01-17T19:19:12.271Z,37.30
2018-01-17T19:21:39.693Z,37.27
2018-01-17T19:24:07.112Z,37.32
2018-01-17T19:26:34.506Z,37.19
2018-01-17T19:29:01.926Z,37.14
2018-01-17T19:31:29.326Z,37.22
2018-01-17T19:33:56.678Z,37.13
2018-01-17T19:36:24.185Z,37.11
2018-01-17T19:38:51.540Z,37.05
2018-01-17T19:41:18.922Z,37.17
2018-01-17T19:43:46.324Z,37.03
2018-01-17T19:46:13.815Z,36.87
2018-01-17T19:48:41.166Z,37.10
2018-01-17T19:51:08.566Z,37.21
2018-01-17T19:53:35.950Z,37.04
2018-01-17T19:56:03.359Z,37.03
2018-01-17T19:58:30.794Z,36.87
2018-01-17T20:00:58.260Z,36.96
2018-01-17T20:03:25.682Z,36.83
2018-01-17T20:05:53.043Z,36.80
2018-01-17T20:08:20.458Z,36.64
2018-01-17T20:10:47.860Z,36.50
2018-01-17T20:13:15.243Z,36.39
2018-01-17T20:15:42.579Z,36.26
2018-01-17T20:18:09.931Z,36.04
2018-01-17T20:20:37.389Z,35.83
2018-01-17T20:23:04.824Z,35.76
2018-01-17T20:25:32.198Z,35.58
2018-01-17T20:27:59.604Z,35.41
2018-01-17T20:30:27.030Z,35.24
2018-01-17T20:32:54.378Z,35.13
2018-01-17T20:35:21.735Z,34.92
2018-01-17T20:37:49.148Z,34.78
2018-01-17T20:40:16.566Z,34.71
2018-01-17T20:42:43.918Z,34.66
2018-01-17T20:45:11.273Z,34.60
2018-01-17T20:47:38.662Z,34.51
2018-01-17T20:50:13.002Z,34.38
2018-01-17T20:52:40.438Z,34.29
2018-01-17T20:55:07.794Z,34.25
2018-01-17T20:57:35.243Z,34.29
2018-01-17T21:00:02.650Z,34.13
2018-01-17T21:02:30.007Z,34.05
2018-01-17T21:04:57.465Z,34.00
2018-01-17T21:07:24.908Z,33.91
2018-01-17T21:09:52.350Z,33.84
2018-01-17T21:12:19.681Z,33.62
2018-01-17T21:14:47.085Z,33.57
2018-01-17T21:17:14.438Z,33.55
2018-01-17T21:19:49.512Z,33.63
2018-01-17T21:22:17.033Z,33.46
2018-01-17T21:24:44.413Z,33.32
2018-01-17T21:27:11.766Z,33.14
2018-01-17T21:29:39.218Z,33.33
2018-01-17T21:32:06.557Z,33.11
2018-01-17T21:34:33.959Z,33.05
2018-01-17T21:37:01.317Z,32.99
2018-01-17T21:39:28.775Z,32.96
2018-01-17T21:41:56.136Z,32.83
2018-01-17T21:44:23.526Z,32.68
2018-01-17T21:46:50.886Z,32.75
2018-01-17T21:49:25.492Z,32.66
2018-01-17T21:51:52.913Z,32.64
2018-01-17T21:54:20.434Z,32.58
2018-01-17T21:56:47.873Z,32.57
2018-01-17T21:59:15.402Z,32.44
2018-01-17T22:01:42.809Z,32.33
2018-01-17T22:04:10.222Z,32.28
2018-01-17T22:06:37.689Z,32.24
2018-01-17T22:09:05.284Z,32.20
2018-01-17T22:11:32.648Z,32.19
2018-01-17T22:14:00.110Z,32.04
2018-01-17T22:16:27.525Z,32.03
2018-01-17T22:18:55.151Z,31.95
2018-01-17T22:21:22.543Z,31.91
2018-01-17T22:23:49.915Z,31.79
2018-01-17T22:26:17.315Z,31.82
2018-01-17T22:28:44.741Z,31.79
2018-01-17T22:31:12.119Z,31.65
2018-01-17T22:33:39.495Z,31.56
2018-01-17T22:36:06.966Z,31.58
2018-01-17T22:38:34.706Z,31.46
2018-01-17T22:41:02.110Z,31.48
2018-01-17T22:43:29.518Z,31.32
2018-01-17T22:45:57.003Z,31.21
2018-01-17T22:48:24.496Z,31.30
2018-01-17T22:50:51.922Z,31.18
2018-01-17T22:53:19.330Z,31.08
2018-01-17T22:55:46.738Z,31.03
2018-01-17T22:58:14.182Z,30.99
2018-01-17T23:00:41.667Z,30.97
2018-01-17T23:03:09.092Z,31.02
2018-01-17T23:05:38.165Z,30.84
2018-01-17T23:08:05.886Z,30.82
2018-01-17T23:10:33.263Z,30.81
2018-01-17T23:13:00.654Z,30.76
2018-01-17T23:15:28.074Z,30.61
2018-01-17T23:17:55.509Z,30.63
2018-01-17T23:20:22.878Z,30.60
2018-01-17T23:22:50.364Z,30.71
2018-01-17T23:25:17.754Z,30.63
2018-01-17T23:27:45.108Z,30.80
2018-01-17T23:30:12.512Z,30.63
2018-01-17T23:32:39.864Z,30.62
2018-01-17T23:35:07.283Z,30.78
2018-01-17T23:37:34.648Z,31.04
2018-01-17T23:40:02.043Z,30.79
2018-01-17T23:42:29.427Z,30.61
2018-01-17T23:44:56.822Z,30.43
2018-01-17T23:47:24.209Z,30.32
2018-01-17T23:49:51.628Z,30.32
2018-01-17T23:52:19.132Z,30.23
2018-01-17T23:54:46.491Z,30.26
2018-01-17T23:57:13.892Z,30.25
2018-01-17T23:59:48.891Z,30.08
